Time;durP1;ratioP1;P1;durP2;ratioP2;P2;SDS_P1;SDS_P2;PMS_P1;PMS_P2;Temp;Humidity;BMP_temperature;BMP_pressure;BME280_temperature;BME280_humidity;BME280_pressure;Samples;Min_cycle;Max_cycle;Signal;HPM_P1;HPM_P2
2022/01/03 00:00:47;;;;;;;34.22;28.25;;;;;;;5.36;73.47;101695.50;2072607;28;20622;-66
2022/01/03 00:01:48;;;;;;;38.72;29.33;;;;;;;5.46;72.70;101703.13;2073599;28;20236;-66
2022/01/03 00:02:50;;;;;;;33.42;27.85;;;;;;;5.44;72.97;101703.47;2074108;28;20552;-66
2022/01/03 00:03:51;;;;;;;36.42;27.92;;;;;;;4.51;72.53;101545.13;2074979;28;20330;-66
2022/01/03 00:04:52;;;;;;;36.73;28.70;;;;;;;5.45;72.64;101688.59;2082175;28;20682;-66
2022/01/03 00:05:54;;;;;;;37.50;29.75;;;;;;;5.45;72.94;101687.78;2082316;28;20203;-66
2022/01/03 00:06:57;;;;;;;40.40;29.85;;;;;;;5.46;73.22;101681.13;2082136;28;20181;-66
2022/01/03 00:07:58;;;;;;;36.40;29.20;;;;;;;4.52;72.83;101530.25;2082338;28;20211;-66
2022/01/03 00:08:59;;;;;;;35.40;28.00;;;;;;;4.33;72.71;101496.63;2082318;28;20255;-66
2022/01/03 00:09:59;;;;;;;40.73;31.53;;;;;;;5.50;72.49;101673.72;2080754;28;20180;-66
2022/01/03 00:11:00;;;;;;;38.03;30.77;;;;;;;5.51;73.25;101678.03;2080965;28;20407;-66
2022/01/03 00:12:01;;;;;;;38.87;30.10;;;;;;;4.70;72.73;101569.75;2082365;28;20654;-66
2022/01/03 00:13:03;;;;;;;40.20;31.67;;;;;;;5.51;72.55;101687.09;2082252;28;20172;-66
2022/01/03 00:14:04;;;;;;;44.78;34.38;;;;;;;5.07;73.47;101611.09;2082200;28;20498;-66
2022/01/03 00:15:07;;;;;;;54.73;37.40;;;;;;;5.49;73.56;101686.66;2082216;28;20176;-66
2022/01/03 00:16:07;;;;;;;42.85;32.35;;;;;;;5.53;73.33;101684.75;2082171;28;20176;-66
2022/01/03 00:17:08;;;;;;;59.57;37.00;;;;;;;5.07;73.47;101614.63;2082330;28;20259;-66
2022/01/03 00:18:08;;;;;;;77.63;42.50;;;;;;;5.52;74.08;101680.44;2082361;28;20169;-66
2022/01/03 00:19:09;;;;;;;75.57;38.97;;;;;;;5.52;73.74;101674.94;2082294;28;20662;-65
2022/01/03 00:20:11;;;;;;;93.10;43.83;;;;;;;5.52;74.57;101666.69;2080774;28;20206;-66
2022/01/03 00:21:17;;;;;;;69.38;37.22;;;;;;;4.91;74.50;101569.25;2082133;28;20186;-66
2022/01/03 00:22:21;;;;;;;51.10;34.53;;;;;;;5.51;73.67;101659.59;2082297;28;20525;-66
2022/01/03 00:23:26;;;;;;;101.03;40.55;;;;;;;5.50;74.15;101652.53;2082092;28;20196;-66
2022/01/03 00:24:32;;;;;;;85.88;38.80;;;;;;;5.49;74.21;101656.41;2082295;28;20160;-66
2022/01/03 00:25:41;;;;;;;79.15;40.95;;;;;;;5.45;74.57;101657.56;2082313;28;20167;-66
2022/01/03 00:26:49;;;;;;;111.75;43.40;;;;;;;5.03;75.40;101608.28;2082135;28;20166;-66
2022/01/03 00:27:50;;;;;;;99.75;41.70;;;;;;;5.15;75.55;101660.28;2081685;28;20201;-66
2022/01/03 00:29:15;;;;;;;93.97;41.17;;;;;;;4.20;75.65;101537.19;2081438;28;20195;-66
2022/01/03 00:30:21;;;;;;;91.72;42.97;;;;;;;5.05;75.42;101665.63;2080601;28;20167;-66
2022/01/03 00:31:33;;;;;;;75.93;40.45;;;;;;;5.08;76.04;101671.16;2082206;28;20248;-66
2022/01/03 00:32:37;;;;;;;79.90;42.10;;;;;;;5.11;75.37;101664.94;2082050;28;20168;-66
2022/01/03 00:33:39;;;;;;;135.23;46.30;;;;;;;4.96;76.09;101634.84;2082113;28;20176;-66
2022/01/03 00:34:40;;;;;;;114.13;44.20;;;;;;;4.37;75.90;101546.88;2082123;28;20251;-66
2022/01/03 00:35:42;;;;;;;85.70;43.00;;;;;;;5.07;75.80;101671.53;2082112;28;20189;-66
2022/01/03 00:36:50;;;;;;;76.15;41.70;;;;;;;4.57;75.99;101595.81;2082353;28;20178;-66
2022/01/03 00:37:51;;;;;;;78.82;42.50;;;;;;;4.94;76.08;101665.47;2082206;28;20179;-66
2022/01/03 00:38:54;;;;;;;72.00;39.60;;;;;;;4.97;75.79;101683.16;2082028;28;20186;-66
2022/01/03 00:39:56;;;;;;;76.68;40.63;;;;;;;4.96;75.64;101687.84;2081127;28;20176;-66
2022/01/03 00:40:59;;;;;;;64.90;37.38;;;;;;;4.98;75.32;101676.50;2081344;28;20179;-66
2022/01/03 00:41:59;;;;;;;66.15;36.17;;;;;;;5.01;74.95;101678.50;2082047;28;20549;-66
2022/01/03 00:43:02;;;;;;;72.87;39.50;;;;;;;4.78;74.73;101642.03;2081990;28;20175;-66
2022/01/03 00:44:03;;;;;;;82.07;38.90;;;;;;;4.89;74.84;101676.75;2081361;28;20171;-66
2022/01/03 00:45:04;;;;;;;59.60;37.23;;;;;;;4.90;74.85;101670.09;2081447;28;20166;-66
2022/01/03 00:46:04;;;;;;;68.33;39.13;;;;;;;4.97;75.16;101664.72;2082155;28;20171;-66
2022/01/03 00:47:05;;;;;;;68.40;39.53;;;;;;;4.99;74.77;101665.16;2081843;28;20466;-66
2022/01/03 00:48:07;;;;;;;93.10;43.83;;;;;;;5.01;75.68;101659.25;2082051;28;20278;-66
2022/01/03 00:49:08;;;;;;;82.95;43.20;;;;;;;5.06;75.42;101654.25;2082001;28;20203;-66
2022/01/03 00:50:15;;;;;;;94.87;44.10;;;;;;;5.11;76.39;101656.69;2080611;28;20692;-66
2022/01/03 00:51:19;;;;;;;61.42;41.83;;;;;;;5.13;75.91;101659.06;2082066;28;20724;-66
2022/01/03 00:52:20;;;;;;;55.30;38.42;;;;;;;5.17;76.44;101655.19;2081966;28;20186;-66
2022/01/03 00:53:20;;;;;;;53.17;38.23;;;;;;;5.21;76.25;101647.81;2082058;28;20649;-66
2022/01/03 00:54:21;;;;;;;83.03;43.43;;;;;;;5.28;76.53;101650.63;2082001;28;20234;-66
2022/01/03 00:55:21;;;;;;;55.63;39.73;;;;;;;5.31;76.16;101658.16;2082053;28;20238;-66
2022/01/03 00:56:29;;;;;;;51.10;37.20;;;;;;;5.35;75.96;101660.94;2081905;28;20229;-66
2022/01/03 00:57:51;;;;;;;61.92;39.08;;;;;;;5.37;75.93;101656.66;2081817;28;20175;-66
2022/01/03 00:59:03;;;;;;;79.93;41.35;;;;;;;5.41;76.20;101652.00;2081934;28;20183;-66
2022/01/03 01:00:08;;;;;;;62.08;39.35;;;;;;;5.43;75.96;101654.41;2081041;28;20254;-66
2022/01/03 01:01:10;;;;;;;64.72;39.33;;;;;;;5.48;76.60;101659.56;2081934;28;20239;-66
2022/01/03 01:02:13;;;;;;;90.95;40.63;;;;;;;5.54;76.34;101652.56;2081831;28;20275;-66
2022/01/03 01:03:20;;;;;;;88.05;40.20;;;;;;;5.55;75.99;101654.94;2081961;28;20188;-66
2022/01/03 01:04:22;;;;;;;89.32;39.67;;;;;;;5.17;76.26;101602.19;2081869;28;20272;-66
2022/01/03 01:05:23;;;;;;;92.40;42.88;;;;;;;5.61;76.37;101652.66;2081902;28;20624;-66
2022/01/03 01:06:31;;;;;;;78.82;42.63;;;;;;;5.63;76.08;101651.09;2081787;28;20740;-66
2022/01/03 01:07:32;;;;;;;73.30;40.17;;;;;;;5.58;76.17;101642.38;2081879;28;20173;-66
2022/01/03 01:08:35;;;;;;;74.67;39.43;;;;;;;5.70;76.33;101666.91;2081874;28;20657;-66
2022/01/03 01:09:37;;;;;;;65.38;40.28;;;;;;;5.24;75.75;101585.81;2081464;28;20924;-66
2022/01/03 01:10:40;;;;;;;106.53;39.47;;;;;;;5.74;75.41;101665.78;2080695;28;20573;-66
2022/01/03 01:11:44;;;;;;;150.25;39.88;;;;;;;5.74;74.95;101670.50;2081790;28;20223;-66
2022/01/03 01:12:46;;;;;;;149.68;40.83;;;;;;;5.66;74.88;101664.13;2081760;28;20180;-66
2022/01/03 01:13:47;;;;;;;94.90;40.92;;;;;;;5.24;74.74;101619.56;2081790;28;20191;-66
2022/01/03 01:14:51;;;;;;;135.07;44.63;;;;;;;4.13;74.57;101438.34;2081725;28;20192;-66
2022/01/03 01:15:51;;;;;;;103.63;40.65;;;;;;;5.55;75.56;101663.16;2081677;28;20259;-66
2022/01/03 01:16:52;;;;;;;69.17;39.53;;;;;;;5.59;75.51;101652.25;2081061;28;20187;-66
2022/01/03 01:17:54;;;;;;;70.93;38.87;;;;;;;4.97;75.19;101554.84;2081178;28;20205;-66
2022/01/03 01:18:55;;;;;;;65.20;38.88;;;;;;;5.64;75.10;101647.19;2081791;28;20597;-66
2022/01/03 01:19:58;;;;;;;68.97;37.53;;;;;;;5.57;75.20;101636.13;2080900;28;20187;-66
2022/01/03 01:20:59;;;;;;;60.88;36.65;;;;;;;5.69;75.96;101641.34;2080915;28;20204;-66
2022/01/03 01:21:59;;;;;;;64.63;37.57;;;;;;;5.71;75.09;101639.03;2082028;28;20176;-66
2022/01/03 01:23:00;;;;;;;63.87;36.90;;;;;;;5.75;75.30;101628.06;2081012;28;20185;-66
2022/01/03 01:24:01;;;;;;;58.83;35.37;;;;;;;5.72;75.25;101626.88;2081167;28;20188;-66
2022/01/03 01:27:53;;;;;;;58.67;35.70;;;;;;;5.62;75.19;101604.72;2081586;28;20282;-66
2022/01/03 01:28:55;;;;;;;61.67;34.70;;;;;;;5.77;75.39;101622.97;2080231;28;20643;-66
2022/01/03 01:29:55;;;;;;;68.70;36.95;;;;;;;5.77;75.78;101618.28;2080793;28;20213;-66
2022/01/03 01:30:59;;;;;;;72.37;35.57;;;;;;;5.79;75.99;101621.44;2081072;28;20180;-66
2022/01/03 01:32:02;;;;;;;82.25;35.63;;;;;;;5.82;75.20;101614.44;2081638;28;20207;-66
2022/01/03 01:33:02;;;;;;;67.70;35.90;;;;;;;5.78;75.21;101608.84;2081757;28;20186;-66
2022/01/03 01:34:05;;;;;;;70.90;36.37;;;;;;;5.80;75.35;101598.28;2081834;28;20211;-66
2022/01/03 01:35:06;;;;;;;78.05;36.53;;;;;;;5.82;75.42;101604.22;2081584;28;20183;-66
2022/01/03 01:36:07;;;;;;;82.07;38.70;;;;;;;5.18;75.58;101491.91;2081761;28;20208;-66
2022/01/03 01:37:09;;;;;;;97.78;39.30;;;;;;;5.84;75.50;101590.88;2081623;28;20215;-66
2022/01/03 01:38:13;;;;;;;88.43;37.20;;;;;;;5.84;75.40;101581.84;2081666;28;20179;-66
2022/01/03 01:39:16;;;;;;;101.70;37.83;;;;;;;5.85;75.39;101589.69;2081644;28;20183;-66
2022/01/03 01:40:17;;;;;;;86.78;40.83;;;;;;;5.86;75.57;101585.00;2080258;28;20685;-66
2022/01/03 01:41:19;;;;;;;111.20;40.83;;;;;;;5.76;75.47;101585.66;2081667;28;20589;-66
2022/01/03 01:42:20;;;;;;;125.32;43.65;;;;;;;5.71;75.64;101596.97;2081527;28;20594;-66
2022/01/03 01:43:43;;;;;;;123.57;45.13;;;;;;;5.73;76.16;101595.44;2081675;28;20192;-66
2022/01/03 01:44:49;;;;;;;78.82;39.13;;;;;;;5.76;75.71;101589.19;2081521;28;20171;-66
2022/01/03 01:45:51;;;;;;;121.85;40.83;;;;;;;5.66;75.85;101570.63;2081575;28;20674;-66
2022/01/03 01:46:55;;;;;;;75.28;39.15;;;;;;;5.64;75.85;101558.41;2081417;28;20254;-66
2022/01/03 01:47:58;;;;;;;73.43;39.35;;;;;;;5.81;75.73;101569.63;2081526;28;20216;-66
2022/01/03 01:49:04;;;;;;;97.78;41.58;;;;;;;5.75;75.62;101571.09;2081514;28;20184;-66
2022/01/03 01:50:05;;;;;;;69.50;39.15;;;;;;;5.43;75.30;101514.97;2080550;28;20581;-66
2022/01/03 01:51:08;;;;;;;85.40;39.72;;;;;;;5.72;75.26;101571.06;2081229;28;20239;-66
2022/01/03 01:52:16;;;;;;;112.82;41.58;;;;;;;5.69;75.83;101578.09;2081436;28;20228;-66
2022/01/03 01:53:22;;;;;;;121.95;42.97;;;;;;;5.71;75.41;101573.03;2081602;28;20171;-66
2022/01/03 01:54:29;;;;;;;91.18;42.13;;;;;;;5.45;75.14;101542.91;2081508;28;20196;-66
2022/01/03 01:55:29;;;;;;;120.75;43.55;;;;;;;5.61;75.28;101581.97;2081490;28;20172;-66
2022/01/03 01:56:54;;;;;;;67.47;37.90;;;;;;;5.60;75.12;101583.09;2081441;28;20234;-66
2022/01/03 01:58:05;;;;;;;90.55;40.35;;;;;;;5.59;75.48;101586.25;2081377;28;20256;-66
2022/01/03 01:59:21;;;;;;;89.53;40.35;;;;;;;5.57;75.06;101583.06;2081508;28;20171;-66
2022/01/03 02:00:22;;;;;;;100.38;40.75;;;;;;;4.94;75.05;101491.63;2080243;28;20176;-66
2022/01/03 02:01:48;;;;;;;115.87;40.87;;;;;;;5.52;74.49;101561.41;2081511;28;20188;-66
2022/01/03 02:03:13;;;;;;;142.18;41.35;;;;;;;5.47;75.49;101567.25;2081415;28;20421;-66
2022/01/03 02:04:31;;;;;;;100.53;41.17;;;;;;;5.52;75.23;101561.41;2081317;28;20278;-66
2022/01/03 02:05:37;;;;;;;60.45;35.47;;;;;;;5.54;75.60;101559.09;2073299;28;20189;-66
2022/01/03 02:06:46;;;;;;;64.10;36.28;;;;;;;5.62;75.26;101555.22;2073332;28;20200;-66
2022/01/03 02:08:13;;;;;;;72.90;37.30;;;;;;;5.60;75.11;101555.59;2073102;28;20196;-66
2022/01/03 02:09:19;;;;;;;66.60;34.25;;;;;;;5.06;75.33;101481.19;2073158;28;20171;-66
2022/01/03 02:10:24;;;;;;;67.97;34.13;;;;;;;5.51;75.02;101549.63;2072150;28;20179;-66
2022/01/03 02:11:49;;;;;;;77.85;33.22;;;;;;;5.60;75.02;101565.84;2072797;28;20171;-66
2022/01/03 02:12:50;;;;;;;72.97;30.77;;;;;;;5.58;74.79;101551.66;2073308;28;20642;-66
2022/01/03 02:13:52;;;;;;;87.97;33.35;;;;;;;5.39;74.69;101522.38;2073305;28;20231;-66
2022/01/03 02:14:57;;;;;;;60.65;30.10;;;;;;;5.25;74.15;101496.69;2073099;28;20180;-66
2022/01/03 02:16:03;;;;;;;82.57;31.30;;;;;;;5.50;74.39;101537.06;2074981;28;20160;-66
2022/01/03 02:17:03;;;;;;;61.40;29.27;;;;;;;5.51;74.32;101544.13;2081399;28;20219;-66
2022/01/03 02:18:06;;;;;;;55.07;29.43;;;;;;;5.51;74.37;101530.38;2081408;28;20171;-66
2022/01/03 02:19:06;;;;;;;80.72;30.13;;;;;;;5.53;74.62;101527.28;2081407;28;20211;-66
2022/01/03 02:20:26;;;;;;;57.33;28.00;;;;;;;5.52;73.64;101528.41;2080138;28;20650;-66
2022/01/03 02:21:26;;;;;;;82.85;30.50;;;;;;;5.18;73.71;101493.88;2081173;28;20179;-66
2022/01/03 02:22:27;;;;;;;88.13;27.80;;;;;;;5.26;74.28;101532.06;2081341;28;20187;-66
2022/01/03 02:23:28;;;;;;;77.57;28.23;;;;;;;5.32;74.21;101524.25;2081234;28;20717;-66
2022/01/03 02:24:28;;;;;;;56.77;25.93;;;;;;;5.27;73.79;101524.59;2081488;28;20183;-66
2022/01/03 02:25:29;;;;;;;81.40;28.33;;;;;;;5.28;73.94;101523.44;2081232;28;20199;-66
2022/01/03 02:26:30;;;;;;;45.40;26.23;;;;;;;5.27;73.83;101528.13;2081378;28;20262;-66
2022/01/03 02:27:31;;;;;;;45.17;25.70;;;;;;;5.29;73.93;101520.31;2080963;28;20401;-66
2022/01/03 02:28:32;;;;;;;69.57;28.20;;;;;;;5.26;73.79;101510.06;2081268;28;20217;-66
2022/01/03 02:29:33;;;;;;;59.70;26.90;;;;;;;5.23;73.71;101507.28;2080863;28;20199;-66
2022/01/03 02:30:34;;;;;;;73.67;29.10;;;;;;;5.22;74.02;101505.69;2080130;28;20186;-66
2022/01/03 02:31:35;;;;;;;109.30;33.05;;;;;;;5.15;73.67;101513.84;2081231;28;20551;-66
2022/01/03 02:32:36;;;;;;;41.65;27.08;;;;;;;5.13;74.28;101518.94;2081092;28;20710;-66
2022/01/03 02:33:38;;;;;;;51.73;26.70;;;;;;;5.17;74.23;101517.81;2081244;28;20558;-66
2022/01/03 02:34:38;;;;;;;57.90;28.08;;;;;;;5.18;74.18;101510.38;2081138;28;20619;-66
2022/01/03 02:35:40;;;;;;;50.70;26.83;;;;;;;5.18;73.84;101504.88;2081198;28;20191;-66
2022/01/03 02:36:44;;;;;;;39.80;25.83;;;;;;;4.68;74.08;101418.34;2081247;28;20567;-66
2022/01/03 02:37:46;;;;;;;39.47;25.05;;;;;;;5.22;73.69;101497.44;2081135;28;20257;-66
2022/01/03 02:38:46;;;;;;;38.85;25.27;;;;;;;5.21;73.41;101493.91;2081247;28;20180;-66
2022/01/03 02:39:47;;;;;;;38.23;24.43;;;;;;;5.22;73.76;101501.00;2080295;28;20676;-66
2022/01/03 02:40:48;;;;;;;42.47;25.80;;;;;;;5.25;73.45;101497.50;2080419;28;20173;-66
2022/01/03 02:41:49;;;;;;;41.63;25.88;;;;;;;4.86;73.62;101443.25;2081180;28;20229;-66
2022/01/03 02:42:49;;;;;;;48.77;26.90;;;;;;;5.16;73.46;101499.75;2081086;28;20211;-66
2022/01/03 02:43:52;;;;;;;67.97;28.33;;;;;;;5.10;73.54;101498.50;2081286;28;20193;-66
2022/01/03 02:45:18;;;;;;;62.85;29.67;;;;;;;4.46;73.71;101429.41;2081053;28;20184;-66
2022/01/03 02:46:18;;;;;;;74.13;28.50;;;;;;;4.83;73.66;101480.47;2081128;28;20645;-66
2022/01/03 02:47:22;;;;;;;49.50;28.07;;;;;;;4.65;73.88;101468.50;2080946;28;20658;-66
2022/01/03 02:48:23;;;;;;;62.65;30.67;;;;;;;4.80;74.11;101505.16;2081090;28;20249;-66
2022/01/03 02:49:23;;;;;;;69.47;31.57;;;;;;;4.74;74.29;101503.91;2080734;28;20180;-66
2022/01/03 02:50:26;;;;;;;73.03;31.43;;;;;;;4.63;74.31;101509.25;2079247;28;20190;-66
2022/01/03 02:51:27;;;;;;;62.08;31.95;;;;;;;4.00;74.62;101427.94;2080429;28;20191;-66
2022/01/03 02:52:27;;;;;;;58.03;30.97;;;;;;;4.47;74.88;101499.59;2081001;28;20274;-66
2022/01/03 02:53:27;;;;;;;73.33;32.70;;;;;;;4.46;74.63;101509.78;2080884;28;20171;-66
2022/01/03 02:54:28;;;;;;;57.17;31.40;;;;;;;3.86;74.60;101411.25;2081243;28;20657;-66
2022/01/03 02:55:30;;;;;;;71.87;33.40;;;;;;;4.15;75.27;101455.22;2081270;28;20673;-66
2022/01/03 02:56:34;;;;;;;93.07;34.58;;;;;;;4.48;74.69;101498.44;2081152;28;20233;-66
2022/01/03 02:57:40;;;;;;;51.42;30.33;;;;;;;4.60;75.11;101507.25;2080831;28;20187;-66
2022/01/03 02:58:40;;;;;;;72.45;30.88;;;;;;;4.65;75.16;101509.66;2081044;28;20183;-66
2022/01/03 02:59:41;;;;;;;66.57;32.40;;;;;;;4.64;75.25;101501.78;2080599;28;20198;-66
2022/01/03 03:00:52;;;;;;;65.23;31.23;;;;;;;3.97;75.18;101424.00;2079834;28;20182;-66
2022/01/03 03:01:52;;;;;;;57.90;32.00;;;;;;;3.63;75.81;101350.19;2081074;28;20621;-66
2022/01/03 03:02:53;;;;;;;45.37;28.13;;;;;;;4.47;76.13;101494.13;2080866;28;20175;-66
2022/01/03 03:03:54;;;;;;;57.85;32.85;;;;;;;4.51;76.43;101481.22;2080821;28;20235;-66
2022/01/03 03:04:57;;;;;;;41.20;29.80;;;;;;;4.59;75.98;101469.19;2080936;28;20213;-66
2022/01/03 03:06:01;;;;;;;42.50;30.23;;;;;;;4.57;75.88;101457.78;2081010;28;20562;-66
2022/01/03 03:07:17;;;;;;;41.20;30.00;;;;;;;4.71;76.03;101477.16;2080938;28;20175;-66
2022/01/03 03:08:18;;;;;;;63.45;33.50;;;;;;;4.71;76.51;101477.97;2080937;28;20185;-66
2022/01/03 03:09:20;;;;;;;50.53;31.85;;;;;;;3.52;76.25;101272.50;2080738;28;20185;-66
2022/01/03 03:10:23;;;;;;;66.68;32.20;;;;;;;4.71;76.96;101480.72;2079764;28;20230;-66
2022/01/03 03:11:23;;;;;;;96.72;36.70;;;;;;;3.85;76.81;101341.16;2080860;28;20179;-66
2022/01/03 03:12:25;;;;;;;89.87;34.27;;;;;;;4.68;77.70;101488.91;2080902;28;20174;-66
2022/01/03 03:13:25;;;;;;;93.78;35.60;;;;;;;4.72;77.77;101490.53;2080977;28;20174;-66
2022/01/03 03:14:25;;;;;;;159.80;40.33;;;;;;;4.75;77.36;101494.50;2080949;28;20187;-66
2022/01/03 03:15:26;;;;;;;78.53;36.23;;;;;;;4.83;78.07;101485.19;2081054;28;20176;-66
2022/01/03 03:16:27;;;;;;;91.50;36.13;;;;;;;4.87;77.72;101486.81;2080832;28;20623;-66
2022/01/03 03:17:28;;;;;;;77.75;33.35;;;;;;;4.92;77.16;101491.97;2080770;28;20611;-66
2022/01/03 03:18:28;;;;;;;105.10;35.37;;;;;;;4.93;77.66;101490.81;2080890;28;20241;-66
2022/01/03 03:19:29;;;;;;;144.37;37.90;;;;;;;4.81;78.29;101490.25;2080683;28;20171;-66
2022/01/03 03:20:32;;;;;;;100.03;36.10;;;;;;;4.66;78.12;101507.72;2079860;28;20267;-66
2022/01/03 03:21:33;;;;;;;142.30;38.63;;;;;;;4.68;77.91;101494.41;2080743;28;20664;-66
2022/01/03 03:22:34;;;;;;;81.83;36.10;;;;;;;4.05;77.98;101405.69;2080447;28;20175;-66
2022/01/03 03:23:34;;;;;;;96.60;35.70;;;;;;;4.44;78.27;101503.88;2080538;28;20252;-66
2022/01/03 03:24:35;;;;;;;73.60;34.43;;;;;;;4.63;78.21;101503.78;2080903;28;20669;-66
2022/01/03 03:25:36;;;;;;;95.47;34.47;;;;;;;4.64;78.27;101504.53;2080908;28;20174;-66
2022/01/03 03:26:36;;;;;;;94.32;36.40;;;;;;;4.02;78.49;101420.13;2080765;28;20266;-66
2022/01/03 03:27:43;;;;;;;127.70;37.97;;;;;;;4.61;78.81;101497.84;2080513;28;20182;-66
2022/01/03 03:28:43;;;;;;;142.77;37.75;;;;;;;3.85;78.87;101380.31;2080821;28;20206;-66
2022/01/03 03:29:47;;;;;;;152.00;41.57;;;;;;;4.66;78.39;101508.50;2080344;28;20170;-66
2022/01/03 03:30:48;;;;;;;131.52;39.53;;;;;;;4.62;78.98;101513.16;2080151;28;20181;-66
2022/01/03 03:31:48;;;;;;;130.15;39.13;;;;;;;4.09;79.03;101426.53;2080732;28;20183;-66
2022/01/03 03:32:52;;;;;;;148.83;40.50;;;;;;;4.56;79.05;101509.13;2080808;28;20181;-66
2022/01/03 03:33:53;;;;;;;122.55;40.40;;;;;;;4.58;79.13;101511.53;2080953;28;20178;-66
2022/01/03 03:34:53;;;;;;;146.50;42.10;;;;;;;4.50;80.23;101515.31;2080818;28;20470;-66
2022/01/03 03:35:54;;;;;;;138.00;41.77;;;;;;;4.51;79.89;101523.19;2080892;28;20185;-66
2022/01/03 03:36:54;;;;;;;106.60;41.03;;;;;;;4.53;80.55;101520.06;2080883;28;20201;-66
2022/01/03 03:37:55;;;;;;;119.13;43.33;;;;;;;4.46;80.66;101523.50;2080860;28;20564;-66
2022/01/03 03:38:56;;;;;;;105.70;42.83;;;;;;;4.46;80.43;101534.47;2080618;28;20174;-66
2022/01/03 03:39:56;;;;;;;167.20;47.90;;;;;;;4.55;81.13;101534.22;2079807;28;20181;-66
2022/01/03 03:40:58;;;;;;;132.10;46.77;;;;;;;4.55;80.89;101520.47;2080227;28;20173;-66
2022/01/03 03:41:59;;;;;;;99.85;44.45;;;;;;;4.58;80.67;101522.50;2080844;28;20169;-66
2022/01/03 03:43:00;;;;;;;141.40;47.03;;;;;;;3.63;80.53;101352.94;2080755;28;20173;-66
2022/01/03 03:44:00;;;;;;;72.87;40.97;;;;;;;4.65;81.22;101517.09;2080919;28;20207;-66
2022/01/03 03:45:02;;;;;;;89.57;42.50;;;;;;;4.62;80.59;101520.59;2080670;28;20186;-66
2022/01/03 03:46:03;;;;;;;131.65;44.58;;;;;;;4.69;81.09;101526.19;2080844;28;20597;-66
2022/01/03 03:47:05;;;;;;;115.70;45.70;;;;;;;4.63;80.89;101519.44;2080543;28;20184;-66
2022/01/03 03:48:07;;;;;;;124.05;46.25;;;;;;;4.61;81.32;101524.53;2080645;28;20202;-66
2022/01/03 03:49:09;;;;;;;101.53;43.35;;;;;;;4.55;81.01;101498.53;2080839;28;20175;-66
2022/01/03 03:50:10;;;;;;;52.42;36.55;;;;;;;4.57;80.81;101488.75;2079529;28;20375;-66
2022/01/03 03:51:11;;;;;;;70.47;40.47;;;;;;;4.87;81.01;101497.81;2080745;28;20180;-66
2022/01/03 03:52:11;;;;;;;69.43;39.07;;;;;;;4.91;80.46;101497.84;2080609;28;20641;-66
2022/01/03 03:53:12;;;;;;;55.17;35.43;;;;;;;4.62;80.18;101441.00;2080775;28;20248;-66
2022/01/03 03:54:12;;;;;;;58.60;35.73;;;;;;;5.05;79.44;101484.28;2080559;28;20213;-66
2022/01/03 03:55:13;;;;;;;71.43;34.77;;;;;;;4.95;79.61;101466.53;2080753;28;20254;-66
2022/01/03 03:56:13;;;;;;;78.03;35.50;;;;;;;5.13;79.41;101484.00;2080845;28;20179;-66
2022/01/03 03:57:14;;;;;;;51.20;29.57;;;;;;;5.14;79.08;101476.56;2080911;28;20688;-66
2022/01/03 03:58:15;;;;;;;54.03;30.97;;;;;;;5.04;78.51;101458.78;2080795;28;20187;-66
2022/01/03 03:59:15;;;;;;;39.07;27.07;;;;;;;5.20;78.00;101467.59;2080588;28;20210;-66
2022/01/03 04:00:18;;;;;;;37.90;28.27;;;;;;;5.25;78.44;101474.72;2079402;28;20178;-66
2022/01/03 04:01:18;;;;;;;49.95;28.38;;;;;;;5.29;78.06;101492.03;2080798;28;20693;-66
2022/01/03 04:02:19;;;;;;;81.53;31.73;;;;;;;5.22;77.96;101503.75;2080768;28;20606;-66
2022/01/03 04:03:19;;;;;;;69.33;32.60;;;;;;;5.05;77.92;101506.28;2080724;28;20201;-66
2022/01/03 04:04:21;;;;;;;55.00;31.70;;;;;;;4.31;77.82;101408.41;2080691;28;20603;-66
2022/01/03 04:05:21;;;;;;;91.40;32.58;;;;;;;4.95;77.52;101526.97;2080590;28;20225;-66
2022/01/03 04:06:22;;;;;;;56.93;32.90;;;;;;;4.91;77.79;101511.56;2080752;28;20180;-66
2022/01/03 04:07:22;;;;;;;66.10;32.60;;;;;;;5.01;77.53;101521.91;2080711;28;20568;-66
2022/01/03 04:08:23;;;;;;;126.00;36.30;;;;;;;5.04;77.40;101518.44;2080656;28;20680;-66
2022/01/03 04:09:23;;;;;;;33.50;26.97;;;;;;;5.06;76.94;101514.16;2080230;28;20187;-66
2022/01/03 04:10:24;;;;;;;40.57;29.10;;;;;;;5.12;76.65;101503.63;2079588;28;20189;-66
2022/01/03 04:11:24;;;;;;;53.27;30.07;;;;;;;4.17;76.82;101354.16;2080659;28;20187;-66
2022/01/03 04:12:25;;;;;;;56.00;30.73;;;;;;;5.08;77.15;101497.28;2080649;28;20179;-66
2022/01/03 04:13:25;;;;;;;42.10;26.77;;;;;;;5.17;76.56;101511.50;2080733;28;20178;-66
2022/01/03 04:14:26;;;;;;;37.57;26.90;;;;;;;5.13;76.87;101494.22;2080958;28;20540;-66
2022/01/03 04:15:26;;;;;;;32.80;26.07;;;;;;;5.21;76.95;101496.66;2080543;28;20179;-66
2022/01/03 04:16:27;;;;;;;41.63;27.20;;;;;;;5.22;76.18;101491.94;2080564;28;20681;-66
2022/01/03 04:17:27;;;;;;;50.53;29.03;;;;;;;5.24;75.73;101493.16;2080656;28;20211;-66
2022/01/03 04:18:28;;;;;;;52.00;28.17;;;;;;;5.25;75.53;101493.94;2080836;28;20184;-66
2022/01/03 04:19:28;;;;;;;45.60;26.57;;;;;;;5.25;75.40;101494.75;2080340;28;20181;-66
2022/01/03 04:20:29;;;;;;;44.03;27.67;;;;;;;5.25;75.26;101499.44;2079494;28;20200;-66
2022/01/03 04:21:29;;;;;;;53.17;30.20;;;;;;;5.18;75.38;101489.16;2080484;28;20187;-66
2022/01/03 04:22:30;;;;;;;61.17;29.53;;;;;;;5.17;75.65;101509.56;2080742;28;20712;-66
2022/01/03 04:23:31;;;;;;;76.70;30.23;;;;;;;5.17;75.55;101501.31;2080619;28;20242;-66
2022/01/03 04:24:31;;;;;;;103.07;32.57;;;;;;;5.14;75.75;101499.31;2080684;28;20558;-66
2022/01/03 04:25:32;;;;;;;40.60;27.37;;;;;;;5.18;75.94;101499.38;2080730;28;20176;-66
2022/01/03 04:26:33;;;;;;;38.80;27.87;;;;;;;5.25;75.13;101493.94;2080577;28;20180;-66
2022/01/03 04:27:34;;;;;;;66.55;31.23;;;;;;;5.26;75.50;101490.84;2080502;28;20586;-67
2022/01/03 04:28:35;;;;;;;39.17;28.50;;;;;;;5.28;75.36;101494.00;2080381;28;20276;-66
2022/01/03 04:29:35;;;;;;;44.83;29.97;;;;;;;5.22;75.14;101490.00;2080097;28;20298;-66
2022/01/03 04:30:36;;;;;;;55.40;30.03;;;;;;;5.31;74.71;101495.19;2079460;28;20180;-66
2022/01/03 04:31:38;;;;;;;67.35;31.90;;;;;;;5.37;75.16;101497.25;2080701;28;20180;-66
2022/01/03 04:32:39;;;;;;;74.18;30.63;;;;;;;4.67;74.72;101389.28;2079882;28;20673;-66
2022/01/03 04:33:39;;;;;;;50.33;30.10;;;;;;;5.32;74.30;101496.78;2079989;28;20592;-66
2022/01/03 04:34:40;;;;;;;87.30;33.97;;;;;;;5.30;74.64;101480.69;2081732;28;20558;-66
2022/01/03 04:35:40;;;;;;;87.97;32.37;;;;;;;5.21;74.18;101490.38;2082135;28;20188;-66
2022/01/03 04:36:41;;;;;;;52.00;30.30;;;;;;;5.22;75.05;101500.19;2082034;28;20179;-66
2022/01/03 04:37:41;;;;;;;75.13;30.03;;;;;;;5.25;74.56;101486.50;2082118;28;20234;-66
2022/01/03 04:38:42;;;;;;;52.27;28.53;;;;;;;5.15;74.05;101478.94;2082130;28;20238;-66
2022/01/03 04:39:43;;;;;;;42.27;27.83;;;;;;;5.26;74.05;101499.06;2081783;28;20566;-66
2022/01/03 04:40:43;;;;;;;64.03;30.40;;;;;;;5.16;73.71;101482.47;2080967;28;20773;-66
2022/01/03 04:41:44;;;;;;;51.97;28.47;;;;;;;5.22;73.46;101495.50;2081375;28;20584;-66
2022/01/03 04:42:44;;;;;;;58.77;27.67;;;;;;;5.22;73.64;101495.50;2081397;28;20215;-66
2022/01/03 04:43:45;;;;;;;53.63;27.27;;;;;;;5.18;73.76;101496.63;2082063;28;20176;-66
2022/01/03 04:44:45;;;;;;;41.47;27.17;;;;;;;5.19;73.78;101498.22;2082123;28;20567;-66
2022/01/03 04:45:46;;;;;;;57.83;28.67;;;;;;;5.19;73.77;101492.72;2082088;28;20283;-66
2022/01/03 04:46:46;;;;;;;75.43;28.10;;;;;;;5.16;73.83;101493.44;2082038;28;20265;-66
2022/01/03 04:47:47;;;;;;;52.40;28.90;;;;;;;5.12;73.54;101489.88;2081960;28;20207;-66
2022/01/03 04:48:48;;;;;;;59.93;27.37;;;;;;;5.03;73.40;101475.66;2082247;28;20169;-66
2022/01/03 04:49:48;;;;;;;50.27;28.07;;;;;;;5.06;73.42;101485.88;2081277;28;20273;-66
2022/01/03 04:50:49;;;;;;;48.20;27.37;;;;;;;5.06;73.72;101503.16;2081326;28;20692;-66
2022/01/03 04:51:50;;;;;;;47.80;26.53;;;;;;;5.05;73.60;101476.84;2081811;28;20804;-66